createdAt,value
2023-04-10T00:01:40.048Z,8.28
2023-04-10T00:04:12.090Z,8.16
2023-04-10T00:06:44.613Z,8.12
2023-04-10T00:09:16.358Z,8.06
2023-04-10T00:11:48.175Z,8.02
2023-04-10T00:14:23.220Z,7.97
2023-04-10T00:16:54.983Z,8.00
2023-04-10T00:19:27.427Z,8.06
2023-04-10T00:21:59.318Z,8.01
2023-04-10T00:24:31.101Z,7.94
2023-04-10T00:27:02.928Z,7.88
2023-04-10T00:29:34.791Z,7.89
2023-04-10T00:32:07.293Z,7.98
2023-04-10T00:34:39.260Z,8.06
2023-04-10T00:37:11.684Z,8.10
2023-04-10T00:39:43.412Z,7.98
2023-04-10T00:42:15.163Z,7.86
2023-04-10T00:44:46.918Z,7.84
2023-04-10T00:47:19.536Z,7.92
2023-04-10T00:49:51.693Z,7.97
2023-04-10T00:52:23.701Z,8.00
2023-04-10T00:54:55.753Z,7.95
2023-04-10T00:57:28.521Z,7.95
2023-04-10T01:00:01.109Z,7.91
2023-04-10T01:02:33.278Z,7.92
2023-04-10T01:05:06.119Z,7.91
2023-04-10T01:07:53.642Z,7.89
2023-04-10T01:10:36.355Z,7.74
2023-04-10T01:13:17.593Z,7.58
2023-04-10T01:15:54.694Z,7.46
2023-04-10T01:18:32.659Z,7.40
2023-04-10T01:21:08.130Z,7.45
2023-04-10T01:24:06.543Z,7.55
2023-04-10T01:26:57.374Z,7.47
2023-04-10T01:29:33.621Z,7.31
2023-04-10T01:32:09.961Z,7.19
2023-04-10T01:34:46.636Z,7.22
2023-04-10T01:37:23.016Z,7.14
2023-04-10T01:40:00.566Z,7.04
2023-04-10T01:42:36.184Z,7.05
2023-04-10T01:45:13.174Z,6.98
2023-04-10T01:47:45.676Z,6.90
2023-04-10T01:50:18.758Z,6.90
2023-04-10T01:52:51.130Z,7.01
2023-04-10T01:55:27.594Z,7.05
2023-04-10T01:58:09.926Z,7.03
2023-04-10T02:00:43.155Z,6.98
2023-04-10T02:03:15.517Z,7.04
2023-04-10T02:05:57.973Z,7.01
2023-04-10T02:08:36.467Z,7.01
2023-04-10T02:11:16.799Z,6.94
2023-04-10T02:13:50.651Z,6.80
2023-04-10T02:16:25.178Z,6.67
2023-04-10T02:18:58.312Z,6.59
2023-04-10T02:21:31.179Z,6.49
2023-04-10T02:24:03.421Z,6.47
2023-04-10T02:26:46.965Z,6.38
2023-04-10T02:29:19.151Z,6.23
2023-04-10T02:31:51.506Z,6.23
2023-04-10T02:34:24.313Z,6.07
2023-04-10T02:36:56.339Z,6.06
2023-04-10T02:39:29.280Z,6.08
2023-04-10T02:42:01.315Z,6.05
2023-04-10T02:44:33.130Z,6.04
2023-04-10T02:47:04.997Z,6.05
2023-04-10T02:49:37.874Z,6.04
2023-04-10T02:52:16.531Z,6.11
2023-04-10T02:54:48.488Z,6.11
2023-04-10T02:57:21.309Z,6.04
2023-04-10T02:59:52.529Z,6.05
2023-04-10T03:02:25.162Z,6.07
2023-04-10T03:04:56.285Z,6.02
2023-04-10T03:07:28.439Z,6.00
2023-04-10T03:10:00.253Z,5.99
2023-04-10T03:12:31.960Z,6.02
2023-04-10T03:15:03.781Z,6.05
2023-04-10T03:17:35.761Z,6.17
2023-04-10T03:20:09.969Z,6.18
2023-04-10T03:22:41.941Z,6.07
2023-04-10T03:25:14.336Z,6.05
2023-04-10T03:27:46.269Z,6.15
2023-04-10T03:30:18.417Z,6.08
2023-04-10T03:32:50.433Z,5.92
2023-04-10T03:35:22.706Z,5.92
2023-04-10T03:37:54.552Z,5.95
2023-04-10T03:40:26.471Z,5.94
2023-04-10T03:42:58.554Z,5.92
2023-04-10T03:45:30.549Z,5.86
2023-04-10T03:48:02.810Z,5.72
2023-04-10T03:50:42.819Z,5.70
2023-04-10T03:53:14.771Z,5.86
2023-04-10T03:55:46.578Z,6.00
2023-04-10T03:58:18.596Z,6.08
2023-04-10T04:00:50.912Z,5.94
2023-04-10T04:03:28.227Z,5.89
2023-04-10T04:06:10.488Z,5.83
2023-04-10T04:08:54.173Z,5.80
2023-04-10T04:11:46.157Z,5.76
2023-04-10T04:14:40.886Z,5.88
2023-04-10T04:17:29.143Z,6.01
2023-04-10T04:20:21.205Z,6.09
2023-04-10T04:23:12.977Z,5.96
2023-04-10T04:26:09.375Z,5.80
2023-04-10T04:28:41.072Z,5.91
2023-04-10T04:31:45.810Z,5.85
2023-04-10T04:34:36.617Z,5.68
2023-04-10T04:37:28.761Z,5.80
2023-04-10T04:40:13.048Z,5.86
2023-04-10T04:43:11.217Z,5.85
2023-04-10T04:46:09.274Z,5.98
2023-04-10T04:49:15.589Z,6.04
2023-04-10T04:51:55.357Z,5.90
2023-04-10T04:55:02.581Z,5.80
2023-04-10T04:58:10.056Z,5.75
2023-04-10T05:01:12.918Z,5.60
2023-04-10T05:04:00.038Z,5.64
2023-04-10T05:07:07.360Z,5.57
2023-04-10T05:09:57.771Z,5.52
2023-04-10T05:12:55.287Z,5.59
2023-04-10T05:15:45.998Z,5.61
2023-04-10T05:18:42.139Z,5.68
2023-04-10T05:21:23.854Z,5.81
2023-04-10T05:24:27.055Z,5.72
2023-04-10T05:27:18.090Z,5.72
2023-04-10T05:30:14.804Z,5.78
2023-04-10T05:33:05.053Z,5.85
2023-04-10T05:36:11.512Z,6.03
2023-04-10T05:38:57.130Z,5.97
2023-04-10T05:41:45.951Z,6.02
2023-04-10T05:44:37.821Z,6.10
2023-04-10T05:47:13.771Z,6.19
2023-04-10T05:49:45.646Z,6.34
2023-04-10T05:52:17.446Z,6.48
2023-04-10T05:55:10.748Z,6.54
2023-04-10T05:58:05.608Z,6.59
2023-04-10T06:01:16.098Z,6.82
2023-04-10T06:03:55.340Z,6.89
2023-04-10T06:06:29.396Z,7.02
2023-04-10T06:09:01.271Z,7.18
2023-04-10T06:11:33.368Z,7.31
2023-04-10T06:14:05.627Z,7.39
2023-04-10T06:16:43.203Z,7.41
2023-04-10T06:19:13.844Z,7.41
2023-04-10T06:21:45.799Z,7.45
2023-04-10T06:24:17.614Z,7.47
2023-04-10T06:26:52.186Z,7.52
2023-04-10T06:29:24.181Z,7.59
2023-04-10T06:31:56.706Z,7.66
2023-04-10T06:34:27.354Z,7.69
2023-04-10T06:37:03.387Z,7.61
2023-04-10T06:39:35.596Z,7.56
2023-04-10T06:42:07.743Z,7.53
2023-04-10T06:44:58.850Z,7.45
2023-04-10T06:47:31.588Z,7.59
2023-04-10T06:50:02.013Z,7.72
2023-04-10T06:52:34.547Z,7.82
2023-04-10T06:55:07.499Z,7.92
2023-04-10T06:57:39.390Z,8.01
2023-04-10T07:00:13.190Z,8.04
2023-04-10T07:02:45.960Z,8.13
2023-04-10T07:05:19.226Z,8.19
2023-04-10T07:07:51.650Z,8.26
2023-04-10T07:10:23.674Z,8.35
2023-04-10T07:12:57.280Z,8.42
2023-04-10T07:15:29.282Z,8.48
2023-04-10T07:18:01.349Z,8.51
2023-04-10T07:20:33.440Z,8.57
2023-04-10T07:23:05.178Z,8.63
2023-04-10T07:25:37.910Z,8.69
2023-04-10T07:28:08.283Z,8.74
2023-04-10T07:30:41.177Z,8.78
2023-04-10T07:33:11.770Z,8.83
2023-04-10T07:35:43.818Z,8.84
2023-04-10T07:38:16.098Z,8.85
2023-04-10T07:40:48.219Z,8.88
2023-04-10T07:43:20.123Z,8.93
2023-04-10T07:45:52.103Z,9.02
2023-04-10T07:48:24.204Z,9.09
2023-04-10T07:50:56.273Z,9.14
2023-04-10T07:53:28.130Z,9.23
2023-04-10T07:55:59.920Z,9.23
2023-04-10T07:58:33.114Z,9.29
2023-04-10T08:01:05.849Z,9.33
2023-04-10T08:03:40.686Z,9.40
2023-04-10T08:06:13.442Z,9.54
2023-04-10T08:08:45.469Z,9.62
2023-04-10T08:11:28.502Z,9.63
2023-04-10T08:14:01.658Z,9.69
2023-04-10T08:16:35.937Z,9.72
2023-04-10T08:19:08.207Z,9.77
2023-04-10T08:21:40.227Z,9.83
2023-04-10T08:24:12.198Z,9.88
2023-04-10T08:26:44.020Z,9.93
2023-04-10T08:29:16.455Z,9.95
2023-04-10T08:31:48.282Z,10.01
2023-04-10T08:34:20.857Z,10.10
2023-04-10T08:36:52.721Z,10.14
2023-04-10T08:39:24.747Z,10.23
2023-04-10T08:41:56.651Z,10.32
2023-04-10T08:44:28.505Z,10.38
2023-04-10T08:47:01.539Z,10.43
2023-04-10T08:49:39.640Z,10.53
2023-04-10T08:52:20.782Z,10.60
2023-04-10T08:54:57.455Z,10.69
2023-04-10T08:57:29.963Z,10.76
2023-04-10T09:00:06.743Z,10.78
2023-04-10T09:02:58.207Z,10.89
2023-04-10T09:05:32.027Z,10.97
2023-04-10T09:08:04.052Z,11.08
2023-04-10T09:10:36.062Z,11.18
2023-04-10T09:13:07.822Z,11.24
2023-04-10T09:15:59.716Z,11.31
2023-04-10T09:18:46.650Z,11.39
2023-04-10T09:21:20.399Z,11.49
2023-04-10T09:24:02.408Z,11.66
2023-04-10T09:26:34.960Z,11.79
2023-04-10T09:29:11.016Z,11.93
2023-04-10T09:31:43.730Z,12.08
2023-04-10T09:34:14.936Z,12.15
2023-04-10T09:36:54.953Z,12.20
2023-04-10T09:39:36.876Z,12.32
2023-04-10T09:42:08.828Z,12.39
2023-04-10T09:44:42.093Z,12.49
2023-04-10T09:47:22.029Z,12.67
2023-04-10T09:49:55.561Z,12.86
2023-04-10T09:52:28.984Z,12.98
2023-04-10T09:55:02.668Z,13.14
2023-04-10T09:57:37.010Z,13.20
2023-04-10T10:00:12.421Z,13.30
2023-04-10T10:02:45.170Z,13.37
2023-04-10T10:05:18.087Z,13.44
2023-04-10T10:07:50.822Z,13.53
2023-04-10T10:10:21.462Z,13.61
2023-04-10T10:13:00.668Z,13.76
2023-04-10T10:15:38.768Z,13.81
2023-04-10T10:18:19.394Z,13.93
2023-04-10T10:20:54.494Z,14.15
2023-04-10T10:23:28.555Z,14.30
2023-04-10T10:26:03.250Z,14.46
2023-04-10T10:28:37.204Z,14.51
2023-04-10T10:31:09.886Z,14.59
2023-04-10T10:33:42.950Z,14.66
2023-04-10T10:36:17.047Z,14.71
2023-04-10T10:38:57.520Z,14.78
2023-04-10T10:41:33.930Z,14.88
2023-04-10T10:44:14.362Z,15.01
2023-04-10T10:46:52.269Z,15.17
2023-04-10T10:49:24.098Z,15.25
2023-04-10T10:51:56.011Z,15.43
2023-04-10T10:54:42.255Z,15.55
2023-04-10T10:57:48.377Z,15.70
2023-04-10T11:00:21.711Z,15.89
2023-04-10T11:03:31.898Z,16.00
2023-04-10T11:06:07.335Z,16.16
2023-04-10T11:08:47.540Z,16.22
2023-04-10T11:11:24.326Z,16.11
2023-04-10T11:14:20.165Z,16.06
2023-04-10T11:16:52.129Z,16.28
2023-04-10T11:19:26.016Z,16.58
2023-04-10T11:22:07.417Z,16.76
2023-04-10T11:25:00.318Z,16.96
2023-04-10T11:27:48.617Z,17.09
2023-04-10T11:30:32.200Z,17.14
2023-04-10T11:33:06.846Z,17.08
2023-04-10T11:35:39.629Z,17.14
2023-04-10T11:38:19.604Z,17.23
2023-04-10T11:41:04.108Z,17.34
2023-04-10T11:43:36.682Z,17.50
2023-04-10T11:46:09.002Z,17.59
2023-04-10T11:48:41.212Z,17.63
2023-04-10T11:51:14.918Z,17.54
2023-04-10T11:53:46.950Z,17.48
2023-04-10T11:56:22.315Z,17.52
2023-04-10T11:58:55.215Z,17.62
2023-04-10T12:01:27.533Z,17.68
2023-04-10T12:03:59.439Z,17.71
2023-04-10T12:06:38.250Z,17.72
2023-04-10T12:09:17.421Z,17.65
2023-04-10T12:11:54.893Z,17.68
2023-04-10T12:14:33.068Z,17.65
2023-04-10T12:17:07.137Z,17.68
2023-04-10T12:19:40.717Z,17.68
2023-04-10T12:22:14.132Z,17.69
2023-04-10T12:24:48.011Z,17.79
2023-04-10T12:27:21.522Z,17.88
2023-04-10T12:29:54.899Z,17.81
2023-04-10T12:32:28.235Z,17.88
2023-04-10T12:35:02.285Z,17.91
2023-04-10T12:37:52.216Z,17.81
2023-04-10T12:40:24.328Z,17.66
2023-04-10T12:42:56.421Z,17.74
2023-04-10T12:45:45.371Z,17.83
2023-04-10T12:48:25.413Z,17.87
2023-04-10T12:50:57.943Z,17.82
2023-04-10T12:53:29.892Z,17.80
2023-04-10T12:56:07.757Z,17.78
2023-04-10T12:58:40.081Z,17.77
2023-04-10T13:01:14.309Z,17.75
2023-04-10T13:03:48.377Z,17.81
2023-04-10T13:06:20.585Z,17.82
2023-04-10T13:08:53.584Z,17.82
2023-04-10T13:11:26.033Z,17.88
2023-04-10T13:13:58.403Z,17.94
2023-04-10T13:16:30.277Z,17.96
2023-04-10T13:19:02.466Z,17.98
2023-04-10T13:21:34.356Z,17.98
2023-04-10T13:24:06.491Z,18.03
2023-04-10T13:26:38.379Z,17.92
2023-04-10T13:29:10.328Z,17.96
2023-04-10T13:31:43.035Z,17.98
2023-04-10T13:34:13.358Z,18.04
2023-04-10T13:36:45.551Z,18.01
2023-04-10T13:39:18.581Z,18.02
2023-04-10T13:41:50.522Z,18.10
2023-04-10T13:44:22.354Z,18.13
2023-04-10T13:46:54.220Z,18.18
2023-04-10T13:49:26.428Z,18.23
2023-04-10T13:51:59.423Z,18.27
2023-04-10T13:54:31.358Z,18.29
2023-04-10T13:57:03.921Z,18.29
2023-04-10T13:59:36.006Z,18.30
2023-04-10T14:02:09.180Z,18.29
2023-04-10T14:04:42.722Z,18.25
2023-04-10T14:07:14.682Z,18.30
2023-04-10T14:09:47.495Z,18.42
2023-04-10T14:12:19.839Z,18.44
2023-04-10T14:14:51.813Z,18.52
2023-04-10T14:17:23.926Z,18.54
2023-04-10T14:19:56.069Z,18.55
2023-04-10T14:22:30.292Z,18.54
2023-04-10T14:25:12.450Z,18.58
2023-04-10T14:27:46.432Z,18.70
2023-04-10T14:30:16.762Z,18.74
2023-04-10T14:32:48.994Z,18.79
2023-04-10T14:35:21.505Z,18.80
2023-04-10T14:37:53.327Z,18.81
2023-04-10T14:40:26.040Z,18.87
2023-04-10T14:42:57.847Z,18.88
2023-04-10T14:45:29.672Z,18.97
2023-04-10T14:48:02.259Z,19.10
2023-04-10T14:50:35.160Z,19.24
2023-04-10T14:53:09.652Z,19.42
2023-04-10T14:55:41.516Z,19.39
2023-04-10T14:58:13.535Z,19.40
2023-04-10T15:00:45.458Z,19.42
2023-04-10T15:03:17.368Z,19.49
2023-04-10T15:05:49.284Z,19.35
2023-04-10T15:08:22.414Z,19.20
2023-04-10T15:10:54.936Z,19.31
2023-04-10T15:13:27.245Z,19.45
2023-04-10T15:15:59.848Z,19.54
2023-04-10T15:18:30.373Z,19.53
2023-04-10T15:21:02.200Z,19.60
2023-04-10T15:23:34.246Z,19.57
2023-04-10T15:26:06.229Z,19.62
2023-04-10T15:28:39.145Z,19.62
2023-04-10T15:31:12.004Z,19.56
2023-04-10T15:33:43.900Z,19.50
2023-04-10T15:36:15.822Z,19.52
2023-04-10T15:38:50.071Z,19.56
2023-04-10T15:41:22.852Z,19.68
2023-04-10T15:43:55.406Z,19.59
2023-04-10T15:46:29.112Z,19.49
2023-04-10T15:49:02.269Z,19.32
2023-04-10T15:51:34.400Z,19.33
2023-04-10T15:54:06.476Z,19.43
2023-04-10T15:56:40.704Z,19.41
2023-04-10T15:59:12.773Z,19.37
2023-04-10T16:01:45.332Z,19.14
2023-04-10T16:04:17.344Z,19.08
2023-04-10T16:06:49.631Z,19.04
2023-04-10T16:09:26.187Z,19.15
2023-04-10T16:11:58.706Z,19.25
2023-04-10T16:14:30.845Z,19.24
2023-04-10T16:17:03.677Z,19.11
2023-04-10T16:19:35.875Z,18.91
2023-04-10T16:22:08.194Z,18.65
2023-04-10T16:24:40.160Z,18.37
2023-04-10T16:27:12.364Z,18.12
2023-04-10T16:29:44.791Z,17.94
2023-04-10T16:32:17.044Z,17.80
2023-04-10T16:34:47.739Z,17.65
2023-04-10T16:37:19.896Z,17.50
2023-04-10T16:39:52.359Z,17.38
2023-04-10T16:42:24.649Z,17.31
2023-04-10T16:44:58.201Z,17.22
2023-04-10T16:47:30.516Z,17.09
2023-04-10T16:50:02.473Z,16.96
2023-04-10T16:52:34.913Z,16.89
2023-04-10T16:55:08.326Z,16.77
2023-04-10T16:57:40.531Z,16.69
2023-04-10T17:00:15.397Z,16.63
2023-04-10T17:02:48.725Z,16.54
2023-04-10T17:05:21.031Z,16.44
2023-04-10T17:07:53.220Z,16.40
2023-04-10T17:10:25.287Z,16.34
2023-04-10T17:12:58.324Z,16.26
2023-04-10T17:15:30.688Z,16.17
2023-04-10T17:18:02.997Z,16.08
2023-04-10T17:20:37.960Z,16.01
2023-04-10T17:23:11.254Z,15.96
2023-04-10T17:25:44.899Z,15.90
2023-04-10T17:28:17.082Z,15.82
2023-04-10T17:30:49.335Z,15.78
2023-04-10T17:33:23.577Z,15.70
2023-04-10T17:35:56.469Z,15.63
2023-04-10T17:38:28.690Z,15.54
2023-04-10T17:41:01.385Z,15.49
2023-04-10T17:43:35.178Z,15.40
2023-04-10T17:46:07.976Z,15.36
2023-04-10T17:48:39.963Z,15.29
2023-04-10T17:51:12.094Z,15.24
2023-04-10T17:53:45.028Z,15.18
2023-04-10T17:56:23.504Z,15.13
2023-04-10T17:58:56.786Z,15.06
2023-04-10T18:01:31.175Z,15.00
2023-04-10T18:04:04.431Z,14.95
2023-04-10T18:06:36.736Z,14.91
2023-04-10T18:09:08.721Z,14.75
2023-04-10T18:11:41.512Z,14.70
2023-04-10T18:14:13.987Z,14.65
2023-04-10T18:16:45.989Z,14.58
2023-04-10T18:19:18.061Z,14.56
2023-04-10T18:21:50.445Z,14.53
2023-04-10T18:24:23.081Z,14.51
2023-04-10T18:26:55.043Z,14.44
2023-04-10T18:29:27.400Z,14.39
2023-04-10T18:31:59.370Z,14.29
2023-04-10T18:34:31.411Z,14.18
2023-04-10T18:37:03.473Z,14.16
2023-04-10T18:39:38.161Z,14.15
2023-04-10T18:42:11.644Z,14.03
2023-04-10T18:44:43.699Z,13.91
2023-04-10T18:47:16.738Z,13.79
2023-04-10T18:49:48.919Z,13.68
2023-04-10T18:52:21.412Z,13.64
2023-04-10T18:54:53.384Z,13.57
2023-04-10T18:57:25.248Z,13.56
2023-04-10T18:59:57.831Z,13.57
2023-04-10T19:02:31.415Z,13.46
2023-04-10T19:05:04.340Z,13.42
2023-04-10T19:07:36.664Z,13.34
2023-04-10T19:10:08.808Z,13.31
2023-04-10T19:12:40.743Z,13.30
2023-04-10T19:15:15.917Z,13.30
2023-04-10T19:17:48.120Z,13.29
2023-04-10T19:20:51.142Z,13.30
2023-04-10T19:23:12.770Z,13.26
2023-04-10T19:25:44.908Z,13.17
2023-04-10T19:28:17.295Z,13.11
2023-04-10T19:30:49.295Z,13.12
2023-04-10T19:33:21.953Z,13.11
2023-04-10T19:35:52.573Z,13.10
2023-04-10T19:38:24.673Z,13.03
2023-04-10T19:40:56.690Z,13.09
2023-04-10T19:43:28.575Z,13.09
2023-04-10T19:46:00.735Z,13.03
2023-04-10T19:48:32.928Z,13.01
2023-04-10T19:51:07.669Z,12.97
2023-04-10T19:53:39.711Z,12.94
2023-04-10T19:56:11.928Z,12.90
2023-04-10T19:58:44.389Z,12.84
2023-04-10T20:01:18.163Z,12.83
2023-04-10T20:03:48.984Z,12.81
2023-04-10T20:06:22.081Z,12.71
2023-04-10T20:08:54.602Z,12.66
2023-04-10T20:11:30.594Z,12.62
2023-04-10T20:14:02.676Z,12.60
2023-04-10T20:16:34.775Z,12.54
2023-04-10T20:19:07.183Z,12.55
2023-04-10T20:21:39.206Z,12.53
2023-04-10T20:24:11.252Z,12.50
2023-04-10T20:26:45.520Z,12.53
2023-04-10T20:29:17.413Z,12.51
2023-04-10T20:31:49.277Z,12.46
2023-04-10T20:34:21.084Z,12.51
2023-04-10T20:36:52.845Z,12.52
2023-04-10T20:39:26.103Z,12.48
2023-04-10T20:41:58.125Z,12.45
2023-04-10T20:44:30.438Z,12.44
2023-04-10T20:47:02.509Z,12.37
2023-04-10T20:49:37.252Z,12.41
2023-04-10T20:52:09.994Z,12.36
2023-04-10T20:54:40.337Z,12.39
2023-04-10T20:57:12.120Z,12.32
2023-04-10T20:59:44.083Z,12.34
2023-04-10T21:02:18.066Z,12.29
2023-04-10T21:04:51.265Z,12.26
2023-04-10T21:07:23.160Z,12.26
2023-04-10T21:09:54.999Z,12.28
2023-04-10T21:12:26.867Z,12.28
2023-04-10T21:14:58.714Z,12.30
2023-04-10T21:17:31.713Z,12.24
2023-04-10T21:20:04.236Z,12.14
2023-04-10T21:22:36.066Z,12.11
2023-04-10T21:25:09.323Z,12.09
2023-04-10T21:27:41.256Z,12.11
2023-04-10T21:30:13.884Z,12.11
2023-04-10T21:32:46.517Z,12.12
2023-04-10T21:35:18.509Z,12.10
2023-04-10T21:37:53.064Z,12.02
2023-04-10T21:40:26.092Z,11.87
2023-04-10T21:42:57.781Z,11.81
2023-04-10T21:45:29.640Z,11.84
2023-04-10T21:48:01.628Z,11.85
2023-04-10T21:50:33.616Z,11.86
2023-04-10T21:53:05.718Z,11.81
2023-04-10T21:55:37.566Z,11.83
2023-04-10T21:58:10.792Z,11.87
2023-04-10T22:00:46.790Z,11.90
2023-04-10T22:03:20.270Z,11.89
2023-04-10T22:05:52.455Z,11.85
2023-04-10T22:08:24.295Z,11.80
2023-04-10T22:10:56.349Z,11.67
2023-04-10T22:13:31.166Z,11.68
2023-04-10T22:16:03.463Z,11.75
2023-04-10T22:18:35.651Z,11.80
2023-04-10T22:21:07.873Z,11.79
2023-04-10T22:23:39.681Z,11.81
2023-04-10T22:26:13.735Z,11.73
2023-04-10T22:28:45.534Z,11.71
2023-04-10T22:31:21.695Z,11.70
2023-04-10T22:33:53.615Z,11.68
2023-04-10T22:36:26.141Z,11.69
2023-04-10T22:38:58.855Z,11.67
2023-04-10T22:41:30.777Z,11.68
2023-04-10T22:44:02.676Z,11.64
2023-04-10T22:46:34.874Z,11.60
2023-04-10T22:49:06.998Z,11.60
2023-04-10T22:51:38.711Z,11.58
2023-04-10T22:54:10.485Z,11.59
2023-04-10T22:56:44.129Z,11.60
2023-04-10T22:59:18.330Z,11.61
2023-04-10T23:01:50.950Z,11.58
2023-04-10T23:04:21.534Z,11.57
2023-04-10T23:06:53.394Z,11.55
2023-04-10T23:09:25.816Z,11.53
2023-04-10T23:11:57.644Z,11.50
2023-04-10T23:14:29.566Z,11.35
2023-04-10T23:17:01.367Z,11.32
2023-04-10T23:19:33.458Z,11.29
2023-04-10T23:22:05.334Z,11.22
2023-04-10T23:24:38.491Z,11.16
2023-04-10T23:27:10.448Z,11.14
2023-04-10T23:29:42.232Z,11.05
2023-04-10T23:32:14.035Z,11.10
2023-04-10T23:34:45.944Z,11.12
2023-04-10T23:37:17.716Z,11.14
2023-04-10T23:39:49.641Z,11.10
2023-04-10T23:42:21.408Z,11.09
2023-04-10T23:44:53.425Z,11.06
2023-04-10T23:47:25.192Z,11.03
2023-04-10T23:49:58.338Z,11.03
2023-04-10T23:52:30.163Z,10.99
2023-04-10T23:55:01.892Z,11.01
2023-04-10T23:57:33.649Z,10.94
